Makantoyka — SV3556 — position and weather

sailwx.info

Track history (hours):
 
Tides and Currents Weather Stations Pressure Air Temp Water Temp Dewpoint Dewpoint Depression Visibility Wind Speed Wind Dir Waves Ship Positions

Makantoyka

Last reported at 2017-Nov-11 20:02 UTC. Time now 2017-Nov-20 23:08 UTC.
Position N 40°08' E 024°17'.
Warning: this ship's position is 9 days out of date.

Length 18 m; draft 1.5 m.

Type: Fishing. MMSI: 237451000.

Date/timePositionNaut miles runAvg speedWind from/ knotsBaromVisibWave heightAir tempDewpointWater temp
2017-Nov-11 20:02N 40°08' E 024°17'0 0.3
2017-Nov-11 19:50N 40°08' E 024°17'0 0.0
2017-Nov-11 15:30N 40°08' E 024°17'23 2.2
2017-Nov-11 05:24N 40°02' E 024°46'5 4.9
2017-Nov-11 04:21N 40°07' E 024°43'6 0.6
2017-Nov-10 19:23N 40°01' E 024°44'1 0.7
2017-Nov-10 17:42N 40°01' E 024°46'0 0.7
2017-Nov-10 17:28N 40°01' E 024°46'0 0.4
2017-Nov-10 16:20N 40°02' E 024°45'2 7.1
2017-Nov-10 16:00N 40°00' E 024°43'18 6.8
2017-Nov-10 13:18N 40°06' E 024°20'3 7.1
2017-Nov-10 12:54N 40°07' E 024°17'3 7.3
2017-Nov-10 12:29N 40°09' E 024°14'3 7.2
2017-Nov-10 12:00N 40°11' E 024°10'4 6.9
2017-Nov-10 11:29N 40°13' E 024°07'3 0.1
2017-Nov-08 08:53N 40°17' E 024°07'4 1.7
2017-Nov-08 06:39N 40°15' E 024°11'0 1.0
2017-Nov-08 06:28N 40°15' E 024°11'0 0.9
2017-Nov-08 05:58N 40°15' E 024°10'3 0.9
2017-Nov-08 02:18N 40°16' E 024°07'0 0.1
2017-Nov-08 01:53N 40°16' E 024°07'0 0.1
2017-Nov-08 00:03N 40°16' E 024°07'4 0.6
2017-Nov-07 17:47N 40°14' E 024°11'0 1.3
2017-Nov-07 17:29N 40°15' E 024°11'  
2017-Nov-03 21:39N 40°08' E 024°16'22 1.5
2017-Nov-03 06:33N 39°60' E 024°43'2 0.3
2017-Nov-03 00:53N 39°58' E 024°44'  
Track history (hours):
 
Tides and Currents Weather Stations Pressure Air Temp Water Temp Dewpoint Dewpoint Depression Visibility Wind Speed Wind Dir Waves Ship Positions

Makantoyka

Last reported at 2017-Nov-11 20:02 UTC. Time now 2017-Nov-20 23:08 UTC.
Position N 40°08' E 024°17'.
Warning: this ship's position is 9 days out of date.

Length 18 m; draft 1.5 m.

Type: Fishing. MMSI: 237451000.

Date/timePositionNaut miles runAvg speedWind from/ knotsBaromVisibWave heightAir tempDewpointWater temp
2017-Nov-11 20:02N 40°08' E 024°17'0 0.3
2017-Nov-11 19:50N 40°08' E 024°17'0 0.0
2017-Nov-11 15:30N 40°08' E 024°17'23 2.2
2017-Nov-11 05:24N 40°02' E 024°46'5 4.9
2017-Nov-11 04:21N 40°07' E 024°43'6 0.6
2017-Nov-10 19:23N 40°01' E 024°44'1 0.7
2017-Nov-10 17:42N 40°01' E 024°46'0 0.7
2017-Nov-10 17:28N 40°01' E 024°46'0 0.4
2017-Nov-10 16:20N 40°02' E 024°45'2 7.1
2017-Nov-10 16:00N 40°00' E 024°43'18 6.8
2017-Nov-10 13:18N 40°06' E 024°20'3 7.1
2017-Nov-10 12:54N 40°07' E 024°17'3 7.3
2017-Nov-10 12:29N 40°09' E 024°14'3 7.2
2017-Nov-10 12:00N 40°11' E 024°10'4 6.9
2017-Nov-10 11:29N 40°13' E 024°07'3 0.1
2017-Nov-08 08:53N 40°17' E 024°07'4 1.7
2017-Nov-08 06:39N 40°15' E 024°11'0 1.0
2017-Nov-08 06:28N 40°15' E 024°11'0 0.9
2017-Nov-08 05:58N 40°15' E 024°10'3 0.9
2017-Nov-08 02:18N 40°16' E 024°07'0 0.1
2017-Nov-08 01:53N 40°16' E 024°07'0 0.1
2017-Nov-08 00:03N 40°16' E 024°07'4 0.6
2017-Nov-07 17:47N 40°14' E 024°11'0 1.3
2017-Nov-07 17:29N 40°15' E 024°11'  
2017-Nov-03 21:39N 40°08' E 024°16'22 1.5
2017-Nov-03 06:33N 39°60' E 024°43'2 0.3
2017-Nov-03 00:53N 39°58' E 024°44'  

Dump ship's entire track history